Fern Creek, Kentucky
Current Conditions -  °F | °C
As of 11:32 PM on Sunday 25 Jan 2015 (Local Time) from KLOU Reporting Station
Overcast Overcast  
Wind Chill: 33°   Ceiling: 900
Heat Index: 39°   Visibility: 7mi
Dew Point: 36°   Wind: 8mph
Humidity: 89%   Direction: 340°NNW
Pressure: 29.7"   Gusts: NA
Location:  38.16°N, 85.59°W
Report Text: KLOU 260432Z 34007KT 7SM BKN009 OVC021 04/02 A2970 RMK AO2 T00390022
Loading
Personal Weather Stations






























Interactive Weather Map New forecast layout! Learn more

10-Day Weather Forecast

Advertisements
Track Severe Weather on mobile